Time;durP1;ratioP1;P1;durP2;ratioP2;P2;SDS_P1;SDS_P2;PMS_P1;PMS_P2;Temp;Humidity;BMP_temperature;BMP_pressure;BME280_temperature;BME280_humidity;BME280_pressure;Samples;Min_cycle;Max_cycle;Signal;HPM_P1;HPM_P2
2023/03/02 00:01:15;;;;;;;7.73;7.10;;;;;;;;;;5051858;28;20525;-69
2023/03/02 00:03:41;;;;;;;8.50;6.83;;;;;;;;;;5056367;28;20645;-69
2023/03/02 00:06:07;;;;;;;6.67;6.07;;;;;;;;;;5047409;28;20242;-69
2023/03/02 00:08:33;;;;;;;7.10;6.47;;;;;;;;;;5054007;28;20203;-68
2023/03/02 00:11:00;;;;;;;7.40;6.70;;;;;;;;;;5046290;28;20706;-69
2023/03/02 00:13:25;;;;;;;8.10;7.30;;;;;;;;;;5054136;28;20428;-69
2023/03/02 00:15:51;;;;;;;8.40;7.60;;;;;;;;;;5046761;28;20525;-69
2023/03/02 00:18:16;;;;;;;7.83;7.10;;;;;;;;;;5052481;28;20670;-69
2023/03/02 00:20:41;;;;;;;8.57;7.77;;;;;;;;;;5052579;28;20194;-68
2023/03/02 00:23:06;;;;;;;10.50;9.50;;;;;;;;;;5051141;28;20184;-70
2023/03/02 00:25:32;;;;;;;9.20;8.30;;;;;;;;;;5055635;28;20254;-70
2023/03/02 00:27:57;;;;;;;9.60;8.70;;;;;;;;;;5051012;28;20232;-69
2023/03/02 00:30:22;;;;;;;9.70;8.80;;;;;;;;;;5055446;28;20666;-69
2023/03/02 00:32:48;;;;;;;10.90;9.80;;;;;;;;;;5054241;28;20190;-69
2023/03/02 00:35:13;;;;;;;10.80;9.80;;;;;;;;;;5050631;28;20684;-68
2023/03/02 00:37:38;;;;;;;10.87;9.80;;;;;;;;;;5037697;28;20183;-69
2023/03/02 00:40:05;;;;;;;10.73;9.70;;;;;;;;;;5052352;28;20677;-69
2023/03/02 00:42:31;;;;;;;11.73;10.53;;;;;;;;;;5055769;28;20523;-69
2023/03/02 00:44:58;;;;;;;10.80;9.80;;;;;;;;;;5052488;28;20467;-69
2023/03/02 00:47:23;;;;;;;14.00;11.90;;;;;;;;;;5051536;28;20184;-68
2023/03/02 00:49:48;;;;;;;12.83;11.47;;;;;;;;;;5052823;28;20421;-69
2023/03/02 00:52:17;;;;;;;12.40;11.20;;;;;;;;;;5055028;28;20180;-69
2023/03/02 00:54:42;;;;;;;12.53;11.33;;;;;;;;;;5055711;28;20420;-69
2023/03/02 00:57:08;;;;;;;13.80;12.50;;;;;;;;;;5055801;28;20415;-69
2023/03/02 00:59:35;;;;;;;14.13;12.53;;;;;;;;;;5055338;28;20186;-69
2023/03/02 01:02:00;;;;;;;16.53;14.70;;;;;;;;;;5055421;28;20209;-69
2023/03/02 01:04:29;;;;;;;17.30;14.80;;;;;;;;;;5050132;28;20469;-69
2023/03/02 01:06:59;;;;;;;23.33;18.13;;;;;;;;;;5057487;28;20201;-69
2023/03/02 01:09:24;;;;;;;21.90;16.87;;;;;;;;;;5056174;28;20487;-69
2023/03/02 01:11:50;;;;;;;27.00;20.47;;;;;;;;;;5053558;28;20454;-69
2023/03/02 01:14:15;;;;;;;33.77;22.20;;;;;;;;;;5056044;28;20200;-69
2023/03/02 01:16:41;;;;;;;32.07;22.67;;;;;;;;;;5055958;28;20244;-68
2023/03/02 01:19:06;;;;;;;35.23;24.17;;;;;;;;;;5055620;28;20669;-69
2023/03/02 01:21:32;;;;;;;36.20;25.00;;;;;;;;;;5050536;28;20203;-69
2023/03/02 01:23:57;;;;;;;39.70;25.00;;;;;;;;;;5057188;28;20250;-69
2023/03/02 01:26:22;;;;;;;39.37;25.70;;;;;;;;;;5056341;28;20180;-69
2023/03/02 01:28:47;;;;;;;46.17;28.80;;;;;;;;;;5055612;28;20183;-69
2023/03/02 01:31:13;;;;;;;44.40;26.00;;;;;;;;;;5042150;28;20305;-68
2023/03/02 01:33:39;;;;;;;44.83;28.77;;;;;;;;;;5054982;28;20168;-68
2023/03/02 01:36:04;;;;;;;42.40;28.73;;;;;;;;;;5054361;28;20445;-69
2023/03/02 01:38:29;;;;;;;46.93;28.63;;;;;;;;;;5053058;28;20186;-68
2023/03/02 01:40:55;;;;;;;47.90;28.50;;;;;;;;;;5055419;28;20175;-69
2023/03/02 01:43:20;;;;;;;49.60;31.43;;;;;;;;;;5053291;28;20184;-69
2023/03/02 01:45:53;;;;;;;47.87;29.77;;;;;;;;;;5052712;28;20580;-69
2023/03/02 01:48:30;;;;;;;44.90;29.10;;;;;;;;;;5049985;28;20214;-69
2023/03/02 01:50:56;;;;;;;44.20;28.33;;;;;;;;;;5055797;28;20449;-69
2023/03/02 01:53:22;;;;;;;39.97;25.90;;;;;;;;;;5055591;28;20418;-68
2023/03/02 01:55:47;;;;;;;38.23;25.37;;;;;;;;;;5056565;28;20580;-69
2023/03/02 01:58:14;;;;;;;40.13;25.40;;;;;;;;;;5053679;28;20512;-70
2023/03/02 02:00:39;;;;;;;32.33;21.60;;;;;;;;;;5054900;28;20191;-69
2023/03/02 02:03:09;;;;;;;32.60;21.90;;;;;;;;;;5051116;28;20435;-69
2023/03/02 02:05:39;;;;;;;33.70;22.40;;;;;;;;;;5050495;28;20298;-69
2023/03/02 02:08:05;;;;;;;35.30;24.10;;;;;;;;;;5055885;28;20419;-68
2023/03/02 02:10:32;;;;;;;35.70;24.13;;;;;;;;;;5056281;28;20469;-69
2023/03/02 02:12:57;;;;;;;38.93;25.60;;;;;;;;;;5053525;28;20433;-68
2023/03/02 02:15:22;;;;;;;35.70;22.93;;;;;;;;;;5048737;28;20994;-69
2023/03/02 02:17:48;;;;;;;30.27;20.97;;;;;;;;;;5044762;28;20639;-69
2023/03/02 02:20:34;;;;;;;28.33;20.70;;;;;;;;;;5048617;28;20176;-69
2023/03/02 02:23:02;;;;;;;23.60;18.40;;;;;;;;;;5044692;28;20491;-69
2023/03/02 02:25:46;;;;;;;25.43;18.47;;;;;;;;;;5049871;28;20449;-69
2023/03/02 02:28:15;;;;;;;23.00;17.40;;;;;;;;;;5052941;28;20793;-69
2023/03/02 02:30:41;;;;;;;20.40;17.40;;;;;;;;;;5045501;28;20959;-69
2023/03/02 02:33:12;;;;;;;21.60;15.97;;;;;;;;;;5049922;28;20935;-69
2023/03/02 02:35:38;;;;;;;18.73;15.53;;;;;;;;;;5038605;28;20266;-68
2023/03/02 02:38:04;;;;;;;20.00;16.13;;;;;;;;;;5041642;28;20429;-69
2023/03/02 02:40:54;;;;;;;19.03;15.93;;;;;;;;;;5049126;28;20894;-69
2023/03/02 02:43:20;;;;;;;20.80;15.40;;;;;;;;;;5049090;28;20434;-68
2023/03/02 02:45:46;;;;;;;18.20;15.37;;;;;;;;;;5051116;28;20461;-68
2023/03/02 02:48:17;;;;;;;17.10;15.30;;;;;;;;;;5053951;28;20433;-69
2023/03/02 02:50:43;;;;;;;19.37;15.60;;;;;;;;;;5046956;28;20464;-69
2023/03/02 02:53:12;;;;;;;17.67;14.30;;;;;;;;;;5051958;28;20464;-69
2023/03/02 02:55:38;;;;;;;17.97;15.77;;;;;;;;;;5049675;28;20437;-68
2023/03/02 02:58:09;;;;;;;18.43;15.60;;;;;;;;;;5050528;28;20482;-69
2023/03/02 03:00:35;;;;;;;18.10;15.70;;;;;;;;;;5049005;28;20782;-69
2023/03/02 03:03:05;;;;;;;17.13;14.60;;;;;;;;;;5052431;28;20495;-68
2023/03/02 03:05:30;;;;;;;18.30;15.03;;;;;;;;;;5051508;28;20299;-69
2023/03/02 03:08:09;;;;;;;17.33;15.27;;;;;;;;;;5051440;28;20525;-68
2023/03/02 03:10:38;;;;;;;18.13;15.57;;;;;;;;;;5052770;28;20245;-69
2023/03/02 03:13:05;;;;;;;19.90;15.70;;;;;;;;;;5052957;28;20432;-68
2023/03/02 03:15:30;;;;;;;18.13;14.83;;;;;;;;;;5055060;28;20449;-68
2023/03/02 03:17:56;;;;;;;17.73;14.37;;;;;;;;;;5053174;28;20434;-69
2023/03/02 03:20:21;;;;;;;16.60;14.53;;;;;;;;;;5055736;28;20187;-69
2023/03/02 03:22:46;;;;;;;17.87;13.77;;;;;;;;;;5061592;28;20432;-69
2023/03/02 03:25:14;;;;;;;18.63;14.20;;;;;;;;;;5056771;28;20218;-69
2023/03/02 03:27:41;;;;;;;17.10;13.93;;;;;;;;;;5055700;28;20207;-69
2023/03/02 03:30:07;;;;;;;17.40;14.93;;;;;;;;;;5056197;28;20448;-69
2023/03/02 03:32:34;;;;;;;16.57;14.30;;;;;;;;;;5058314;28;20956;-69
2023/03/02 03:34:59;;;;;;;16.93;14.17;;;;;;;;;;5055980;28;20198;-70
2023/03/02 03:37:24;;;;;;;16.50;14.33;;;;;;;;;;5051953;28;20438;-69
2023/03/02 03:39:50;;;;;;;18.13;15.57;;;;;;;;;;5057057;28;20773;-69
2023/03/02 03:42:15;;;;;;;17.40;15.20;;;;;;;;;;5058568;28;20218;-69
2023/03/02 03:44:40;;;;;;;17.40;14.20;;;;;;;;;;5042361;28;20218;-69
2023/03/02 03:47:06;;;;;;;17.63;15.47;;;;;;;;;;5054628;28;20209;-69
2023/03/02 03:49:31;;;;;;;16.60;14.07;;;;;;;;;;5058813;28;20183;-69
2023/03/02 03:51:56;;;;;;;16.00;14.13;;;;;;;;;;5055487;28;20215;-69
2023/03/02 03:54:22;;;;;;;17.10;15.17;;;;;;;;;;5052720;28;20204;-69
2023/03/02 03:56:48;;;;;;;18.00;15.17;;;;;;;;;;5057719;28;20272;-68
2023/03/02 03:59:16;;;;;;;17.40;15.57;;;;;;;;;;5052887;28;20211;-68
2023/03/02 04:01:44;;;;;;;18.73;15.53;;;;;;;;;;5058722;28;20429;-68
2023/03/02 04:04:11;;;;;;;17.43;15.60;;;;;;;;;;5055447;28;20839;-69
2023/03/02 04:06:37;;;;;;;18.60;16.10;;;;;;;;;;5057206;28;20606;-69
2023/03/02 04:09:03;;;;;;;19.73;14.60;;;;;;;;;;5056182;28;20418;-67
2023/03/02 04:11:30;;;;;;;17.70;15.80;;;;;;;;;;5044704;28;20203;-69
2023/03/02 04:13:55;;;;;;;18.53;16.37;;;;;;;;;;5047793;28;20475;-69
2023/03/02 04:16:20;;;;;;;17.93;15.50;;;;;;;;;;5046673;28;20434;-69
2023/03/02 04:18:45;;;;;;;17.37;14.77;;;;;;;;;;5052900;28;20178;-69
2023/03/02 04:21:11;;;;;;;19.40;16.73;;;;;;;;;;5050836;28;20307;-69
2023/03/02 04:23:36;;;;;;;18.27;15.57;;;;;;;;;;5058009;28;20186;-68
2023/03/02 04:26:04;;;;;;;19.00;16.63;;;;;;;;;;5052911;28;20198;-69
2023/03/02 04:28:29;;;;;;;18.73;16.53;;;;;;;;;;5053108;28;20534;-69
2023/03/02 04:30:54;;;;;;;20.50;17.17;;;;;;;;;;5053945;28;20473;-68
2023/03/02 04:33:20;;;;;;;19.70;16.53;;;;;;;;;;5054931;28;20642;-68
2023/03/02 04:35:45;;;;;;;19.90;17.33;;;;;;;;;;5049974;22;20266;-70
2023/03/02 04:38:10;;;;;;;20.03;17.20;;;;;;;;;;5036174;28;20187;-70
2023/03/02 04:40:36;;;;;;;22.00;17.40;;;;;;;;;;5037129;28;20176;-70
2023/03/02 04:43:01;;;;;;;22.00;18.97;;;;;;;;;;5032607;28;20203;-70
2023/03/02 04:45:26;;;;;;;22.13;16.87;;;;;;;;;;5035990;28;20199;-69
2023/03/02 04:47:51;;;;;;;20.53;16.60;;;;;;;;;;5033242;28;20177;-70
2023/03/02 04:50:17;;;;;;;17.43;15.20;;;;;;;;;;5034990;28;20290;-70
2023/03/02 04:52:42;;;;;;;18.10;15.83;;;;;;;;;;5036006;28;20182;-70
2023/03/02 04:55:07;;;;;;;16.87;15.10;;;;;;;;;;5035976;28;20214;-70
2023/03/02 04:57:33;;;;;;;16.10;14.13;;;;;;;;;;5032077;28;20264;-70
2023/03/02 04:59:58;;;;;;;18.50;15.90;;;;;;;;;;5035333;28;20185;-70
2023/03/02 05:02:23;;;;;;;18.40;16.07;;;;;;;;;;5035236;28;20203;-70
2023/03/02 05:04:48;;;;;;;19.50;17.37;;;;;;;;;;5035040;28;20589;-70
2023/03/02 05:07:14;;;;;;;20.10;17.00;;;;;;;;;;5036451;28;20169;-70
2023/03/02 05:09:39;;;;;;;20.10;16.87;;;;;;;;;;5035437;28;20176;-70
2023/03/02 05:12:04;;;;;;;20.30;17.10;;;;;;;;;;5036007;28;20689;-70
2023/03/02 05:14:30;;;;;;;20.40;16.50;;;;;;;;;;5033986;28;20238;-70
2023/03/02 05:16:55;;;;;;;19.90;17.20;;;;;;;;;;5033656;28;20238;-70
2023/03/02 05:19:20;;;;;;;21.60;17.33;;;;;;;;;;5032005;28;20274;-69
2023/03/02 05:21:46;;;;;;;18.33;16.27;;;;;;;;;;5035815;28;20638;-70
2023/03/02 05:24:11;;;;;;;20.87;17.50;;;;;;;;;;5028715;28;20176;-70
2023/03/02 05:26:37;;;;;;;21.40;18.03;;;;;;;;;;5027784;28;20250;-70
2023/03/02 05:29:02;;;;;;;18.10;15.97;;;;;;;;;;5035070;28;20176;-69
2023/03/02 05:31:29;;;;;;;21.97;17.20;;;;;;;;;;5027261;28;20690;-70
2023/03/02 05:33:54;;;;;;;20.87;17.43;;;;;;;;;;5030234;28;20172;-70
2023/03/02 05:36:19;;;;;;;17.60;15.40;;;;;;;;;;5035659;28;20971;-70
2023/03/02 05:38:45;;;;;;;18.90;16.03;;;;;;;;;;5034997;28;20188;-70
2023/03/02 05:41:10;;;;;;;20.27;17.20;;;;;;;;;;5039164;28;20234;-70
2023/03/02 05:43:35;;;;;;;20.30;17.73;;;;;;;;;;5037611;28;20235;-70
2023/03/02 05:46:01;;;;;;;21.57;17.60;;;;;;;;;;5023616;28;20291;-69
2023/03/02 05:48:27;;;;;;;20.20;17.10;;;;;;;;;;5037730;28;20189;-70
2023/03/02 05:50:55;;;;;;;18.67;15.60;;;;;;;;;;5036094;28;20239;-70
2023/03/02 05:53:20;;;;;;;18.07;14.47;;;;;;;;;;5037182;28;20414;-70
2023/03/02 05:55:45;;;;;;;17.43;14.70;;;;;;;;;;5035528;28;20958;-70
2023/03/02 05:58:13;;;;;;;17.90;15.80;;;;;;;;;;5036422;28;20179;-70
2023/03/02 06:00:38;;;;;;;18.33;15.20;;;;;;;;;;5034900;28;20226;-70
2023/03/02 06:03:03;;;;;;;19.33;14.87;;;;;;;;;;5038970;28;20489;-70
2023/03/02 06:05:29;;;;;;;17.40;14.30;;;;;;;;;;5037070;28;20210;-70
2023/03/02 06:07:54;;;;;;;16.93;14.00;;;;;;;;;;5037715;28;20207;-70
2023/03/02 06:10:20;;;;;;;16.80;13.30;;;;;;;;;;5035489;28;20658;-70
2023/03/02 06:12:45;;;;;;;16.23;13.50;;;;;;;;;;5034877;28;20175;-70
2023/03/02 06:15:10;;;;;;;15.07;13.47;;;;;;;;;;5037513;28;20188;-70
2023/03/02 06:17:36;;;;;;;16.60;13.27;;;;;;;;;;5037977;28;20184;-70
2023/03/02 06:20:03;;;;;;;17.67;13.97;;;;;;;;;;5034925;28;20277;-70
2023/03/02 06:22:29;;;;;;;16.90;14.10;;;;;;;;;;5050792;28;20176;-70
2023/03/02 06:24:56;;;;;;;16.80;13.93;;;;;;;;;;5034076;28;20500;-70
2023/03/02 06:27:22;;;;;;;17.40;13.47;;;;;;;;;;5026574;28;20204;-69
2023/03/02 06:29:47;;;;;;;16.67;14.10;;;;;;;;;;5038456;28;20937;-70
2023/03/02 06:32:15;;;;;;;16.63;13.67;;;;;;;;;;5034530;28;20204;-70
2023/03/02 06:34:40;;;;;;;16.50;12.87;;;;;;;;;;5037410;28;20203;-70
2023/03/02 06:37:05;;;;;;;19.80;14.97;;;;;;;;;;5036663;28;20954;-70
2023/03/02 06:39:32;;;;;;;17.37;14.10;;;;;;;;;;5034555;28;20169;-70
2023/03/02 06:41:59;;;;;;;15.87;12.83;;;;;;;;;;5038584;28;20192;-70
2023/03/02 06:44:24;;;;;;;18.90;14.60;;;;;;;;;;5037135;28;20473;-70
2023/03/02 06:46:49;;;;;;;17.07;14.20;;;;;;;;;;5034744;28;20463;-70
2023/03/02 06:49:14;;;;;;;15.53;11.97;;;;;;;;;;5035926;28;20208;-70
2023/03/02 06:51:40;;;;;;;17.33;13.33;;;;;;;;;;5039305;28;20204;-70
2023/03/02 06:54:07;;;;;;;17.20;13.60;;;;;;;;;;5020476;28;20189;-70
2023/03/02 06:56:32;;;;;;;18.37;14.43;;;;;;;;;;5035244;28;20184;-70
2023/03/02 06:58:57;;;;;;;17.20;13.67;;;;;;;;;;5035697;28;20463;-70
2023/03/02 07:01:23;;;;;;;16.10;12.80;;;;;;;;;;5051944;28;20184;-71
2023/03/02 07:03:48;;;;;;;17.10;13.80;;;;;;;;;;5036823;28;20176;-70
2023/03/02 07:06:13;;;;;;;17.23;13.80;;;;;;;;;;5022056;28;20214;-70
2023/03/02 07:08:39;;;;;;;19.27;14.03;;;;;;;;;;5037865;28;20188;-70
2023/03/02 07:11:05;;;;;;;17.57;13.57;;;;;;;;;;5035858;28;20215;-70
2023/03/02 07:13:30;;;;;;;16.73;13.33;;;;;;;;;;5038530;28;20179;-70
2023/03/02 07:15:56;;;;;;;14.13;11.90;;;;;;;;;;5036086;28;20511;-70
2023/03/02 07:18:21;;;;;;;14.50;12.13;;;;;;;;;;5036001;28;20171;-70
2023/03/02 07:20:46;;;;;;;14.80;12.10;;;;;;;;;;5028308;28;20305;-71
2023/03/02 07:23:11;;;;;;;15.60;13.10;;;;;;;;;;5037681;28;20183;-71
2023/03/02 07:25:37;;;;;;;15.90;12.83;;;;;;;;;;5034226;28;20662;-70
2023/03/02 07:28:02;;;;;;;14.43;11.17;;;;;;;;;;5037167;28;20207;-70
2023/03/02 07:30:27;;;;;;;14.73;12.13;;;;;;;;;;5036817;28;20210;-70
2023/03/02 07:32:53;;;;;;;15.60;12.80;;;;;;;;;;5034995;28;20181;-70
2023/03/02 07:35:18;;;;;;;15.67;12.67;;;;;;;;;;5033639;28;20219;-70
2023/03/02 07:37:43;;;;;;;14.23;11.47;;;;;;;;;;5034687;28;20180;-70
2023/03/02 07:40:10;;;;;;;14.87;12.07;;;;;;;;;;5039547;28;20184;-70
2023/03/02 07:42:35;;;;;;;14.70;11.13;;;;;;;;;;5038616;28;20273;-70
2023/03/02 07:45:03;;;;;;;15.17;12.07;;;;;;;;;;5037719;28;20450;-70
2023/03/02 07:47:28;;;;;;;13.27;11.10;;;;;;;;;;5035392;28;20182;-70
2023/03/02 07:49:53;;;;;;;12.37;11.00;;;;;;;;;;5035847;28;20831;-70
2023/03/02 07:52:18;;;;;;;12.40;11.07;;;;;;;;;;5037783;28;20204;-70
2023/03/02 07:54:44;;;;;;;13.23;10.70;;;;;;;;;;5038494;28;20660;-70
2023/03/02 07:57:09;;;;;;;11.90;9.10;;;;;;;;;;5036263;28;20210;-70
2023/03/02 07:59:34;;;;;;;13.07;10.80;;;;;;;;;;5036550;28;20187;-70
2023/03/02 08:02:00;;;;;;;13.50;11.10;;;;;;;;;;5035980;28;20220;-70
2023/03/02 08:04:25;;;;;;;12.43;10.73;;;;;;;;;;5035052;28;20232;-70
2023/03/02 08:06:50;;;;;;;14.80;12.07;;;;;;;;;;5036435;28;20189;-70
2023/03/02 08:09:16;;;;;;;14.47;11.47;;;;;;;;;;5034873;28;20692;-70
2023/03/02 08:11:41;;;;;;;14.27;12.10;;;;;;;;;;5037875;28;20712;-70
2023/03/02 08:14:06;;;;;;;22.53;14.53;;;;;;;;;;5036153;28;20670;-70
2023/03/02 08:16:32;;;;;;;14.53;12.33;;;;;;;;;;5034695;28;20439;-69
2023/03/02 08:18:57;;;;;;;17.00;13.13;;;;;;;;;;5034261;28;20171;-70
2023/03/02 08:21:23;;;;;;;16.83;12.77;;;;;;;;;;5032816;28;20175;-69
2023/03/02 08:23:49;;;;;;;16.03;12.87;;;;;;;;;;5027274;28;20190;-70
2023/03/02 08:26:14;;;;;;;14.70;12.70;;;;;;;;;;5032602;28;20516;-70
2023/03/02 08:28:40;;;;;;;16.50;13.00;;;;;;;;;;5034101;28;20184;-70
2023/03/02 08:31:06;;;;;;;15.63;13.23;;;;;;;;;;5035964;28;20207;-70
2023/03/02 08:33:32;;;;;;;16.03;13.07;;;;;;;;;;5029769;28;20593;-70
2023/03/02 08:36:02;;;;;;;16.17;12.83;;;;;;;;;;5033591;28;20450;-70
2023/03/02 08:38:27;;;;;;;16.20;12.50;;;;;;;;;;5034340;28;20187;-70
2023/03/02 08:40:53;;;;;;;16.30;12.30;;;;;;;;;;5035036;28;20414;-70
2023/03/02 08:43:19;;;;;;;17.13;13.60;;;;;;;;;;5032496;28;20686;-70
2023/03/02 08:45:48;;;;;;;17.60;14.00;;;;;;;;;;5038776;28;20666;-70
2023/03/02 08:48:14;;;;;;;15.00;12.63;;;;;;;;;;5034828;28;20791;-70
2023/03/02 08:50:39;;;;;;;17.90;14.50;;;;;;;;;;5033609;28;20463;-70
2023/03/02 08:53:04;;;;;;;19.10;15.33;;;;;;;;;;5034371;28;20202;-70
2023/03/02 08:55:33;;;;;;;16.70;13.50;;;;;;;;;;5033825;28;20202;-70
2023/03/02 08:57:58;;;;;;;17.30;13.23;;;;;;;;;;5035495;28;20218;-69
2023/03/02 09:00:23;;;;;;;15.50;13.57;;;;;;;;;;5034329;28;20894;-70
2023/03/02 09:02:49;;;;;;;17.60;14.30;;;;;;;;;;5035038;28;20168;-70
2023/03/02 09:05:14;;;;;;;16.90;13.23;;;;;;;;;;5019267;28;20201;-69
2023/03/02 09:07:39;;;;;;;15.07;12.00;;;;;;;;;;5033304;28;20172;-70
2023/03/02 09:10:05;;;;;;;15.00;12.50;;;;;;;;;;5033864;28;20172;-69
2023/03/02 09:12:30;;;;;;;14.17;11.60;;;;;;;;;;5034197;28;20230;-70
2023/03/02 09:14:55;;;;;;;13.40;11.40;;;;;;;;;;5037641;28;20211;-70
2023/03/02 09:17:20;;;;;;;11.80;10.27;;;;;;;;;;5031839;28;20187;-70
2023/03/02 09:19:46;;;;;;;12.30;10.63;;;;;;;;;;5038038;28;20180;-69
2023/03/02 09:22:11;;;;;;;13.40;11.07;;;;;;;;;;5034301;28;20266;-70
2023/03/02 09:24:36;;;;;;;12.13;9.80;;;;;;;;;;5040401;28;20278;-70
2023/03/02 09:27:02;;;;;;;11.80;10.40;;;;;;;;;;5039193;28;20262;-70
2023/03/02 09:29:28;;;;;;;13.97;11.70;;;;;;;;;;5037928;28;20567;-70
2023/03/02 09:31:53;;;;;;;11.37;9.50;;;;;;;;;;5039399;28;20200;-70
2023/03/02 09:34:19;;;;;;;10.87;9.47;;;;;;;;;;5037430;28;20216;-70
2023/03/02 09:36:44;;;;;;;9.83;8.83;;;;;;;;;;5033937;28;20648;-70
2023/03/02 09:39:11;;;;;;;10.17;8.90;;;;;;;;;;5037499;28;20184;-69
2023/03/02 09:41:48;;;;;;;10.00;8.93;;;;;;;;;;5040081;28;20183;-70
2023/03/02 09:44:29;;;;;;;11.40;9.67;;;;;;;;;;5038001;28;20426;-71
2023/03/02 09:47:08;;;;;;;11.70;10.10;;;;;;;;;;5040364;28;20415;-69
2023/03/02 09:49:52;;;;;;;11.97;10.03;;;;;;;;;;5037090;28;20618;-70
2023/03/02 09:52:24;;;;;;;11.30;9.27;;;;;;;;;;5030963;28;20470;-70
2023/03/02 09:54:49;;;;;;;11.07;9.83;;;;;;;;;;5035652;28;20431;-70
2023/03/02 09:57:35;;;;;;;12.60;9.37;;;;;;;;;;5030675;28;20436;-70
2023/03/02 10:00:05;;;;;;;11.17;9.90;;;;;;;;;;5036561;28;20191;-70
2023/03/02 10:02:34;;;;;;;10.60;9.30;;;;;;;;;;5027545;28;20481;-70
2023/03/02 10:05:01;;;;;;;10.83;9.10;;;;;;;;;;5033120;28;20827;-70
2023/03/02 10:07:28;;;;;;;12.03;9.57;;;;;;;;;;5036525;28;21142;-70
2023/03/02 10:09:54;;;;;;;12.10;9.87;;;;;;;;;;5038275;28;20462;-71
2023/03/02 10:12:32;;;;;;;11.03;9.17;;;;;;;;;;5039732;28;20519;-70
2023/03/02 10:15:02;;;;;;;11.30;9.47;;;;;;;;;;5040451;28;20882;-70
2023/03/02 10:17:35;;;;;;;11.47;9.30;;;;;;;;;;5037380;28;20902;-70
2023/03/02 10:20:09;;;;;;;11.87;9.77;;;;;;;;;;5036638;28;20950;-70
2023/03/02 10:22:38;;;;;;;11.70;10.03;;;;;;;;;;5037381;28;20420;-70
2023/03/02 10:25:21;;;;;;;12.73;10.63;;;;;;;;;;5034940;28;20767;-70
2023/03/02 10:27:51;;;;;;;12.50;10.70;;;;;;;;;;5022647;28;20955;-70
2023/03/02 10:30:19;;;;;;;10.50;9.00;;;;;;;;;;5036318;28;20465;-70
2023/03/02 10:32:47;;;;;;;10.47;9.37;;;;;;;;;;5038045;28;20421;-71
2023/03/02 10:35:14;;;;;;;12.57;9.90;;;;;;;;;;5020098;28;20817;-70
2023/03/02 10:37:40;;;;;;;12.33;9.50;;;;;;;;;;5034081;28;20415;-70
2023/03/02 10:40:05;;;;;;;11.20;9.33;;;;;;;;;;5046503;22;20500;-78
2023/03/02 10:42:35;;;;;;;12.53;10.60;;;;;;;;;;5048153;28;20182;-78
2023/03/02 10:45:07;;;;;;;12.80;11.07;;;;;;;;;;5049295;28;20183;-78
2023/03/02 10:47:32;;;;;;;11.30;9.93;;;;;;;;;;5045373;28;20811;-78
2023/03/02 10:49:57;;;;;;;12.13;10.17;;;;;;;;;;5048585;28;20682;-78
2023/03/02 10:52:24;;;;;;;12.10;10.80;;;;;;;;;;5045802;28;20587;-78
2023/03/02 10:55:00;;;;;;;12.00;10.40;;;;;;;;;;5044119;28;20782;-77
2023/03/02 10:57:29;;;;;;;13.90;10.90;;;;;;;;;;5047869;28;20434;-77
2023/03/02 11:00:13;;;;;;;11.53;9.90;;;;;;;;;;5047211;28;20534;-78
2023/03/02 11:02:46;;;;;;;13.77;10.63;;;;;;;;;;5047709;28;20414;-78
2023/03/02 11:05:28;;;;;;;14.23;10.80;;;;;;;;;;5060779;28;20422;-78
2023/03/02 11:07:54;;;;;;;12.90;10.20;;;;;;;;;;5044123;28;20518;-78
2023/03/02 11:10:21;;;;;;;12.87;10.43;;;;;;;;;;5045295;28;21015;-78
2023/03/02 11:12:48;;;;;;;12.23;10.30;;;;;;;;;;5046696;28;20943;-78
2023/03/02 11:15:22;;;;;;;11.07;9.27;;;;;;;;;;5044664;28;20850;-78
2023/03/02 11:17:50;;;;;;;10.70;9.40;;;;;;;;;;5044724;28;20406;-78
2023/03/02 11:20:28;;;;;;;10.27;9.00;;;;;;;;;;5045984;28;21017;-78
2023/03/02 11:23:02;;;;;;;8.60;7.70;;;;;;;;;;5045502;28;20410;-78
2023/03/02 11:25:30;;;;;;;10.10;8.33;;;;;;;;;;5045643;28;20999;-78
2023/03/02 11:28:02;;;;;;;10.17;8.80;;;;;;;;;;5046936;28;20414;-78
2023/03/02 11:30:30;;;;;;;11.00;9.30;;;;;;;;;;5046258;28;20443;-77
2023/03/02 11:32:58;;;;;;;11.27;8.80;;;;;;;;;;5063757;28;20988;-78
2023/03/02 11:35:37;;;;;;;13.80;9.10;;;;;;;;;;5038656;28;20971;-79
2023/03/02 11:38:09;;;;;;;12.40;9.27;;;;;;;;;;5036060;28;20465;-77
2023/03/02 11:40:52;;;;;;;12.60;9.50;;;;;;;;;;5040293;28;20475;-77
2023/03/02 11:43:18;;;;;;;8.73;7.40;;;;;;;;;;5042858;28;20867;-78
2023/03/02 11:45:47;;;;;;;12.13;9.00;;;;;;;;;;5040576;28;20453;-77
2023/03/02 11:48:22;;;;;;;9.60;8.43;;;;;;;;;;5039119;28;20192;-77
2023/03/02 11:50:56;;;;;;;10.40;8.70;;;;;;;;;;5041092;28;20462;-77
2023/03/02 11:53:25;;;;;;;10.87;8.40;;;;;;;;;;5040194;28;20457;-77
2023/03/02 11:55:51;;;;;;;10.30;8.30;;;;;;;;;;5058394;28;20427;-77
2023/03/02 11:58:18;;;;;;;12.17;9.50;;;;;;;;;;5040665;28;20959;-77
2023/03/02 12:00:44;;;;;;;10.67;9.03;;;;;;;;;;5042093;28;20266;-78
2023/03/02 12:03:15;;;;;;;13.30;10.43;;;;;;;;;;5041475;28;20927;-77
2023/03/02 12:06:04;;;;;;;12.73;10.70;;;;;;;;;;5042213;28;20562;-77
2023/03/02 12:08:31;;;;;;;16.47;12.37;;;;;;;;;;5013908;28;20434;-77
2023/03/02 12:11:02;;;;;;;15.20;11.57;;;;;;;;;;5043531;28;20471;-77
2023/03/02 12:13:30;;;;;;;15.03;11.60;;;;;;;;;;5058730;28;20522;-78
2023/03/02 12:15:55;;;;;;;13.27;10.90;;;;;;;;;;5057065;28;20430;-77
2023/03/02 12:18:21;;;;;;;13.90;12.07;;;;;;;;;;5040319;28;20933;-78
2023/03/02 12:21:01;;;;;;;13.80;11.37;;;;;;;;;;5043873;28;20184;-77
2023/03/02 12:23:27;;;;;;;13.57;10.97;;;;;;;;;;5041105;28;20179;-77
2023/03/02 12:26:11;;;;;;;14.57;12.20;;;;;;;;;;5040869;28;20434;-78
2023/03/02 12:28:38;;;;;;;14.17;11.90;;;;;;;;;;5038264;28;20227;-77
2023/03/02 12:31:06;;;;;;;14.20;11.20;;;;;;;;;;5041977;28;20462;-77
2023/03/02 12:33:36;;;;;;;14.03;11.60;;;;;;;;;;5043319;28;20437;-77
2023/03/02 12:36:03;;;;;;;14.90;11.83;;;;;;;;;;5055798;28;20430;-77
2023/03/02 12:38:30;;;;;;;14.47;11.63;;;;;;;;;;5039636;28;20582;-78
2023/03/02 12:41:22;;;;;;;13.87;11.13;;;;;;;;;;5040138;28;20818;-77
2023/03/02 12:44:06;;;;;;;13.27;11.10;;;;;;;;;;5034799;28;20442;-78
2023/03/02 12:46:32;;;;;;;12.90;10.83;;;;;;;;;;5046652;28;20457;-77
2023/03/02 12:49:16;;;;;;;13.30;10.63;;;;;;;;;;5043942;28;21142;-78
2023/03/02 12:51:44;;;;;;;12.97;10.20;;;;;;;;;;5046048;28;20466;-78
2023/03/02 12:54:14;;;;;;;11.27;9.20;;;;;;;;;;5048072;28;20470;-78
2023/03/02 12:56:39;;;;;;;11.13;9.43;;;;;;;;;;5047235;28;20533;-78
2023/03/02 12:59:05;;;;;;;9.27;8.37;;;;;;;;;;5044381;28;20885;-78
2023/03/02 13:01:31;;;;;;;11.23;9.10;;;;;;;;;;5045934;28;20184;-78
2023/03/02 13:03:57;;;;;;;9.80;8.80;;;;;;;;;;5036933;28;20739;-76
2023/03/02 13:06:24;;;;;;;9.63;8.03;;;;;;;;;;5043202;28;20549;-78
2023/03/02 13:08:51;;;;;;;8.10;7.30;;;;;;;;;;5032213;28;20464;-77
2023/03/02 13:11:21;;;;;;;11.17;8.83;;;;;;;;;;5040567;28;20462;-78
2023/03/02 13:13:47;;;;;;;9.30;8.30;;;;;;;;;;5050620;28;20444;-77
2023/03/02 13:16:20;;;;;;;10.03;8.50;;;;;;;;;;5048164;28;20422;-79
2023/03/02 13:18:48;;;;;;;8.77;7.73;;;;;;;;;;5045257;28;20525;-78
2023/03/02 13:21:13;;;;;;;11.30;7.73;;;;;;;;;;5043001;28;20536;-75
2023/03/02 13:23:49;;;;;;;9.60;7.67;;;;;;;;;;5049581;28;21118;-77
2023/03/02 13:26:28;;;;;;;8.93;7.80;;;;;;;;;;5043120;28;20552;-76
2023/03/02 13:29:01;;;;;;;8.70;7.80;;;;;;;;;;5049102;28;20437;-76
2023/03/02 13:31:27;;;;;;;10.40;8.30;;;;;;;;;;5044898;28;20876;-78
2023/03/02 13:33:54;;;;;;;10.90;9.60;;;;;;;;;;5046263;28;20422;-77
2023/03/02 13:36:21;;;;;;;9.57;8.43;;;;;;;;;;5049906;28;20414;-78
2023/03/02 13:38:47;;;;;;;9.60;7.40;;;;;;;;;;5044591;28;20454;-78
2023/03/02 13:41:20;;;;;;;9.30;8.30;;;;;;;;;;5047567;28;20571;-77
2023/03/02 13:43:45;;;;;;;10.20;8.33;;;;;;;;;;5047118;28;20429;-76
2023/03/02 13:46:10;;;;;;;9.47;8.00;;;;;;;;;;5050263;28;20414;-77
2023/03/02 13:48:36;;;;;;;10.33;8.80;;;;;;;;;;5047331;28;20199;-77
2023/03/02 13:51:17;;;;;;;10.80;8.47;;;;;;;;;;5050475;28;20210;-76
2023/03/02 13:54:02;;;;;;;9.27;8.10;;;;;;;;;;5048581;28;20538;-76
2023/03/02 13:56:29;;;;;;;9.40;7.87;;;;;;;;;;5048841;28;20411;-76
2023/03/02 13:58:54;;;;;;;8.40;7.60;;;;;;;;;;5050160;28;20437;-76
2023/03/02 14:01:20;;;;;;;11.60;9.13;;;;;;;;;;5048933;28;20875;-77
2023/03/02 14:03:45;;;;;;;8.70;7.50;;;;;;;;;;5049280;28;20198;-76
2023/03/02 14:06:10;;;;;;;10.60;8.87;;;;;;;;;;5047423;28;20192;-76
2023/03/02 14:08:36;;;;;;;9.67;8.30;;;;;;;;;;5048489;28;20191;-76
2023/03/02 14:11:02;;;;;;;8.20;7.40;;;;;;;;;;5049121;28;20567;-77
2023/03/02 14:13:38;;;;;;;14.53;6.83;;;;;;;;;;5048817;28;20180;-77
2023/03/02 14:16:04;;;;;;;9.47;7.90;;;;;;;;;;5048962;28;20399;-76
2023/03/02 14:18:40;;;;;;;7.67;6.87;;;;;;;;;;5045881;28;20426;-76
2023/03/02 14:21:10;;;;;;;8.77;7.57;;;;;;;;;;5049427;28;20183;-76
2023/03/02 14:23:35;;;;;;;8.17;7.37;;;;;;;;;;5064726;28;20822;-76